sensor_id;sensor_type;location;lat;lon;timestamp;temperature;humidity
29201;DHT22;16244;51.956;12.980;2023-03-01T00:01:09;-2.50;96.40
29201;DHT22;16244;51.956;12.980;2023-03-01T00:03:37;-2.50;96.30
29201;DHT22;16244;51.956;12.980;2023-03-01T00:06:05;-2.50;96.20
29201;DHT22;16244;51.956;12.980;2023-03-01T00:08:34;-2.50;96.10
29201;DHT22;16244;51.956;12.980;2023-03-01T00:11:04;-2.50;96.00
29201;DHT22;16244;51.956;12.980;2023-03-01T00:13:32;-2.50;95.70
29201;DHT22;16244;51.956;12.980;2023-03-01T00:16:02;-2.50;95.30
29201;DHT22;16244;51.956;12.980;2023-03-01T00:18:29;-2.60;95.20
29201;DHT22;16244;51.956;12.980;2023-03-01T00:20:57;-2.60;95.00
29201;DHT22;16244;51.956;12.980;2023-03-01T00:23:25;-2.70;94.80
29201;DHT22;16244;51.956;12.980;2023-03-01T00:25:54;-2.60;94.30
29201;DHT22;16244;51.956;12.980;2023-03-01T00:28:21;-2.70;94.60
29201;DHT22;16244;51.956;12.980;2023-03-01T00:30:49;-2.70;95.00
29201;DHT22;16244;51.956;12.980;2023-03-01T00:33:16;-2.80;95.10
29201;DHT22;16244;51.956;12.980;2023-03-01T00:35:44;-2.80;95.30
29201;DHT22;16244;51.956;12.980;2023-03-01T00:38:12;-2.90;95.20
29201;DHT22;16244;51.956;12.980;2023-03-01T00:40:39;-2.80;95.30
29201;DHT22;16244;51.956;12.980;2023-03-01T00:43:08;-2.90;95.50
29201;DHT22;16244;51.956;12.980;2023-03-01T00:45:36;-3.00;95.40
29201;DHT22;16244;51.956;12.980;2023-03-01T00:48:04;-3.00;95.50
29201;DHT22;16244;51.956;12.980;2023-03-01T00:50:32;-3.00;95.20
29201;DHT22;16244;51.956;12.980;2023-03-01T00:52:59;-3.00;94.80
29201;DHT22;16244;51.956;12.980;2023-03-01T00:55:27;-3.10;94.90
29201;DHT22;16244;51.956;12.980;2023-03-01T00:57:54;-3.10;94.90
29201;DHT22;16244;51.956;12.980;2023-03-01T01:00:23;-3.10;95.60
29201;DHT22;16244;51.956;12.980;2023-03-01T01:02:54;-3.10;96.40
29201;DHT22;16244;51.956;12.980;2023-03-01T01:05:21;-3.10;96.20
29201;DHT22;16244;51.956;12.980;2023-03-01T01:07:48;-3.10;95.90
29201;DHT22;16244;51.956;12.980;2023-03-01T01:10:16;-3.20;96.00
29201;DHT22;16244;51.956;12.980;2023-03-01T01:12:47;-3.30;96.40
29201;DHT22;16244;51.956;12.980;2023-03-01T01:15:14;-3.20;96.00
29201;DHT22;16244;51.956;12.980;2023-03-01T01:17:44;-3.20;95.60
29201;DHT22;16244;51.956;12.980;2023-03-01T01:20:12;-3.20;95.90
29201;DHT22;16244;51.956;12.980;2023-03-01T01:22:39;-3.20;95.50
29201;DHT22;16244;51.956;12.980;2023-03-01T01:25:07;-3.20;95.50
29201;DHT22;16244;51.956;12.980;2023-03-01T01:27:35;-3.10;96.20
29201;DHT22;16244;51.956;12.980;2023-03-01T01:30:03;-3.10;96.80
29201;DHT22;16244;51.956;12.980;2023-03-01T01:32:31;-3.10;97.40
29201;DHT22;16244;51.956;12.980;2023-03-01T01:35:00;-3.10;98.00
29201;DHT22;16244;51.956;12.980;2023-03-01T01:37:27;-3.00;98.10
29201;DHT22;16244;51.956;12.980;2023-03-01T01:39:58;-3.10;98.20
29201;DHT22;16244;51.956;12.980;2023-03-01T01:42:26;-3.00;98.10
29201;DHT22;16244;51.956;12.980;2023-03-01T01:45:25;-3.10;97.90
29201;DHT22;16244;51.956;12.980;2023-03-01T01:47:56;-3.10;97.60
29201;DHT22;16244;51.956;12.980;2023-03-01T01:50:26;-3.20;96.90
29201;DHT22;16244;51.956;12.980;2023-03-01T01:53:10;-3.20;97.20
29201;DHT22;16244;51.956;12.980;2023-03-01T01:55:41;-3.30;97.30
29201;DHT22;16244;51.956;12.980;2023-03-01T01:58:11;-3.20;96.70
29201;DHT22;16244;51.956;12.980;2023-03-01T02:00:41;-3.20;96.30
29201;DHT22;16244;51.956;12.980;2023-03-01T02:03:10;-3.20;96.50
29201;DHT22;16244;51.956;12.980;2023-03-01T02:05:45;-3.30;96.50
29201;DHT22;16244;51.956;12.980;2023-03-01T02:08:16;-3.30;96.40
29201;DHT22;16244;51.956;12.980;2023-03-01T02:10:46;-3.30;96.20
29201;DHT22;16244;51.956;12.980;2023-03-01T02:13:15;-3.30;96.30
29201;DHT22;16244;51.956;12.980;2023-03-01T02:15:42;-3.40;96.60
29201;DHT22;16244;51.956;12.980;2023-03-01T02:18:12;-3.40;96.70
29201;DHT22;16244;51.956;12.980;2023-03-01T02:20:51;-3.40;97.10
29201;DHT22;16244;51.956;12.980;2023-03-01T02:23:20;-3.40;97.10
29201;DHT22;16244;51.956;12.980;2023-03-01T02:25:51;-3.40;96.60
29201;DHT22;16244;51.956;12.980;2023-03-01T02:28:25;-3.40;96.10
29201;DHT22;16244;51.956;12.980;2023-03-01T02:30:53;-3.50;96.00
29201;DHT22;16244;51.956;12.980;2023-03-01T02:33:39;-3.50;95.90
29201;DHT22;16244;51.956;12.980;2023-03-01T02:36:10;-3.50;95.80
29201;DHT22;16244;51.956;12.980;2023-03-01T02:38:40;-3.50;95.90
29201;DHT22;16244;51.956;12.980;2023-03-01T02:41:08;-3.50;95.90
29201;DHT22;16244;51.956;12.980;2023-03-01T02:43:39;-3.50;96.00
29201;DHT22;16244;51.956;12.980;2023-03-01T02:46:14;-3.50;96.10
29201;DHT22;16244;51.956;12.980;2023-03-01T02:48:45;-3.50;96.10
29201;DHT22;16244;51.956;12.980;2023-03-01T02:51:22;-3.60;96.10
29201;DHT22;16244;51.956;12.980;2023-03-01T02:54:02;-3.60;96.30
29201;DHT22;16244;51.956;12.980;2023-03-01T02:56:33;-3.60;95.80
29201;DHT22;16244;51.956;12.980;2023-03-01T02:59:02;-3.60;95.80
29201;DHT22;16244;51.956;12.980;2023-03-01T03:01:30;-3.60;95.60
29201;DHT22;16244;51.956;12.980;2023-03-01T03:04:04;-3.70;95.70
29201;DHT22;16244;51.956;12.980;2023-03-01T03:06:32;-3.70;96.00
29201;DHT22;16244;51.956;12.980;2023-03-01T03:09:00;-3.80;96.20
29201;DHT22;16244;51.956;12.980;2023-03-01T03:11:28;-3.80;96.10
29201;DHT22;16244;51.956;12.980;2023-03-01T03:13:56;-3.80;96.20
29201;DHT22;16244;51.956;12.980;2023-03-01T03:16:25;-3.70;96.00
29201;DHT22;16244;51.956;12.980;2023-03-01T03:18:53;-3.70;96.00
29201;DHT22;16244;51.956;12.980;2023-03-01T03:21:20;-3.80;96.10
29201;DHT22;16244;51.956;12.980;2023-03-01T03:23:48;-3.80;96.30
29201;DHT22;16244;51.956;12.980;2023-03-01T03:26:15;-3.80;96.40
29201;DHT22;16244;51.956;12.980;2023-03-01T03:28:43;-3.80;96.40
29201;DHT22;16244;51.956;12.980;2023-03-01T03:31:10;-3.80;96.50
29201;DHT22;16244;51.956;12.980;2023-03-01T03:33:39;-3.90;96.70
29201;DHT22;16244;51.956;12.980;2023-03-01T03:36:07;-3.80;97.00
29201;DHT22;16244;51.956;12.980;2023-03-01T03:38:39;-3.70;97.30
29201;DHT22;16244;51.956;12.980;2023-03-01T03:41:07;-3.80;97.30
29201;DHT22;16244;51.956;12.980;2023-03-01T03:43:36;-3.80;97.10
29201;DHT22;16244;51.956;12.980;2023-03-01T03:46:04;-3.80;97.00
29201;DHT22;16244;51.956;12.980;2023-03-01T03:48:33;-3.80;96.60
29201;DHT22;16244;51.956;12.980;2023-03-01T03:51:03;-3.90;96.20
29201;DHT22;16244;51.956;12.980;2023-03-01T03:53:31;-3.90;96.10
29201;DHT22;16244;51.956;12.980;2023-03-01T03:55:59;-4.00;95.90
29201;DHT22;16244;51.956;12.980;2023-03-01T03:58:27;-3.90;96.10
29201;DHT22;16244;51.956;12.980;2023-03-01T04:00:55;-3.90;96.00
29201;DHT22;16244;51.956;12.980;2023-03-01T04:03:25;-3.90;96.00
29201;DHT22;16244;51.956;12.980;2023-03-01T04:05:53;-3.90;95.70
29201;DHT22;16244;51.956;12.980;2023-03-01T04:08:23;-3.90;95.70
29201;DHT22;16244;51.956;12.980;2023-03-01T04:10:52;-4.00;95.90
29201;DHT22;16244;51.956;12.980;2023-03-01T04:13:21;-4.00;96.00
29201;DHT22;16244;51.956;12.980;2023-03-01T04:15:49;-4.10;96.30
29201;DHT22;16244;51.956;12.980;2023-03-01T04:18:18;-4.10;96.40
29201;DHT22;16244;51.956;12.980;2023-03-01T04:20:46;-4.00;96.40
29201;DHT22;16244;51.956;12.980;2023-03-01T04:23:16;-4.00;96.40
29201;DHT22;16244;51.956;12.980;2023-03-01T04:25:48;-4.00;96.80
29201;DHT22;16244;51.956;12.980;2023-03-01T04:28:22;-4.00;96.80
29201;DHT22;16244;51.956;12.980;2023-03-01T04:30:50;-4.00;96.70
29201;DHT22;16244;51.956;12.980;2023-03-01T04:33:18;-4.00;96.60
29201;DHT22;16244;51.956;12.980;2023-03-01T04:35:46;-4.10;97.40
29201;DHT22;16244;51.956;12.980;2023-03-01T04:38:16;-4.10;97.20
29201;DHT22;16244;51.956;12.980;2023-03-01T04:40:43;-4.10;96.80
29201;DHT22;16244;51.956;12.980;2023-03-01T04:43:13;-4.20;96.70
29201;DHT22;16244;51.956;12.980;2023-03-01T04:45:41;-4.20;96.90
29201;DHT22;16244;51.956;12.980;2023-03-01T04:48:09;-4.20;97.00
29201;DHT22;16244;51.956;12.980;2023-03-01T04:50:36;-4.10;96.40
29201;DHT22;16244;51.956;12.980;2023-03-01T04:53:04;-4.10;96.40
29201;DHT22;16244;51.956;12.980;2023-03-01T04:55:31;-4.20;96.60
29201;DHT22;16244;51.956;12.980;2023-03-01T04:57:58;-4.10;96.90
29201;DHT22;16244;51.956;12.980;2023-03-01T05:00:27;-4.10;97.20
29201;DHT22;16244;51.956;12.980;2023-03-01T05:02:56;-4.10;97.60
29201;DHT22;16244;51.956;12.980;2023-03-01T05:05:26;-4.20;98.50
29201;DHT22;16244;51.956;12.980;2023-03-01T05:07:55;-4.10;98.90
29201;DHT22;16244;51.956;12.980;2023-03-01T05:10:24;-4.10;98.80
29201;DHT22;16244;51.956;12.980;2023-03-01T05:12:52;-4.10;98.80
29201;DHT22;16244;51.956;12.980;2023-03-01T05:15:20;-4.10;98.60
29201;DHT22;16244;51.956;12.980;2023-03-01T05:17:53;-4.10;98.40
29201;DHT22;16244;51.956;12.980;2023-03-01T05:20:21;-4.00;97.90
29201;DHT22;16244;51.956;12.980;2023-03-01T05:22:50;-4.00;97.20
29201;DHT22;16244;51.956;12.980;2023-03-01T05:25:18;-4.10;97.00
29201;DHT22;16244;51.956;12.980;2023-03-01T05:27:47;-4.10;96.50
29201;DHT22;16244;51.956;12.980;2023-03-01T05:30:16;-4.10;96.40
29201;DHT22;16244;51.956;12.980;2023-03-01T05:32:45;-4.30;96.80
29201;DHT22;16244;51.956;12.980;2023-03-01T05:35:16;-4.20;96.70
29201;DHT22;16244;51.956;12.980;2023-03-01T05:37:45;-4.20;95.70
29201;DHT22;16244;51.956;12.980;2023-03-01T05:40:16;-4.30;95.80
29201;DHT22;16244;51.956;12.980;2023-03-01T05:42:44;-4.20;96.00
29201;DHT22;16244;51.956;12.980;2023-03-01T05:45:13;-4.30;96.00
29201;DHT22;16244;51.956;12.980;2023-03-01T05:47:41;-4.20;95.80
29201;DHT22;16244;51.956;12.980;2023-03-01T05:50:12;-4.30;95.70
29201;DHT22;16244;51.956;12.980;2023-03-01T05:52:41;-4.40;95.90
29201;DHT22;16244;51.956;12.980;2023-03-01T05:55:09;-4.40;95.90
29201;DHT22;16244;51.956;12.980;2023-03-01T05:57:37;-4.30;95.80
29201;DHT22;16244;51.956;12.980;2023-03-01T06:00:05;-4.30;95.90
29201;DHT22;16244;51.956;12.980;2023-03-01T06:02:33;-4.40;96.40
29201;DHT22;16244;51.956;12.980;2023-03-01T06:05:00;-4.30;96.50
29201;DHT22;16244;51.956;12.980;2023-03-01T06:07:28;-4.30;96.10
29201;DHT22;16244;51.956;12.980;2023-03-01T06:09:57;-4.30;96.00
29201;DHT22;16244;51.956;12.980;2023-03-01T06:12:25;-4.30;96.10
29201;DHT22;16244;51.956;12.980;2023-03-01T06:14:52;-4.30;96.20
29201;DHT22;16244;51.956;12.980;2023-03-01T06:17:19;-4.20;96.20
29201;DHT22;16244;51.956;12.980;2023-03-01T06:19:47;-4.20;96.70
29201;DHT22;16244;51.956;12.980;2023-03-01T06:22:14;-4.20;96.90
29201;DHT22;16244;51.956;12.980;2023-03-01T06:24:42;-4.10;97.00
29201;DHT22;16244;51.956;12.980;2023-03-01T06:27:11;-4.10;96.80
29201;DHT22;16244;51.956;12.980;2023-03-01T06:29:38;-4.00;96.70
29201;DHT22;16244;51.956;12.980;2023-03-01T06:32:06;-4.00;96.60
29201;DHT22;16244;51.956;12.980;2023-03-01T06:34:34;-3.80;96.70
29201;DHT22;16244;51.956;12.980;2023-03-01T06:37:01;-3.70;96.40
29201;DHT22;16244;51.956;12.980;2023-03-01T06:39:31;-3.70;96.30
29201;DHT22;16244;51.956;12.980;2023-03-01T06:41:59;-3.60;96.30
29201;DHT22;16244;51.956;12.980;2023-03-01T06:44:28;-3.60;96.80
29201;DHT22;16244;51.956;12.980;2023-03-01T06:46:55;-3.50;96.90
29201;DHT22;16244;51.956;12.980;2023-03-01T06:49:23;-3.40;97.20
29201;DHT22;16244;51.956;12.980;2023-03-01T06:51:51;-3.10;97.30
29201;DHT22;16244;51.956;12.980;2023-03-01T06:54:18;-2.70;96.70
29201;DHT22;16244;51.956;12.980;2023-03-01T06:56:48;-2.40;95.80
29201;DHT22;16244;51.956;12.980;2023-03-01T06:59:18;-2.30;95.00
29201;DHT22;16244;51.956;12.980;2023-03-01T07:01:47;-2.20;94.90
29201;DHT22;16244;51.956;12.980;2023-03-01T07:04:14;-2.00;94.70
29201;DHT22;16244;51.956;12.980;2023-03-01T07:06:42;-1.80;94.70
29201;DHT22;16244;51.956;12.980;2023-03-01T07:09:10;-1.30;94.10
29201;DHT22;16244;51.956;12.980;2023-03-01T07:11:38;-0.80;93.00
29201;DHT22;16244;51.956;12.980;2023-03-01T07:14:05;-0.20;91.60
29201;DHT22;16244;51.956;12.980;2023-03-01T07:16:33;0.50;89.50
29201;DHT22;16244;51.956;12.980;2023-03-01T07:19:01;1.00;86.10
29201;DHT22;16244;51.956;12.980;2023-03-01T07:21:29;1.30;84.10
29201;DHT22;16244;51.956;12.980;2023-03-01T07:23:56;1.50;82.70
29201;DHT22;16244;51.956;12.980;2023-03-01T07:26:24;1.90;81.90
29201;DHT22;16244;51.956;12.980;2023-03-01T07:28:51;2.40;79.70
29201;DHT22;16244;51.956;12.980;2023-03-01T07:31:19;2.90;76.90
29201;DHT22;16244;51.956;12.980;2023-03-01T07:33:46;3.30;74.50
29201;DHT22;16244;51.956;12.980;2023-03-01T07:36:15;3.40;73.70
29201;DHT22;16244;51.956;12.980;2023-03-01T07:38:42;3.40;73.40
29201;DHT22;16244;51.956;12.980;2023-03-01T07:41:10;3.60;73.90
29201;DHT22;16244;51.956;12.980;2023-03-01T07:43:37;3.90;72.40
29201;DHT22;16244;51.956;12.980;2023-03-01T07:46:05;3.70;72.90
29201;DHT22;16244;51.956;12.980;2023-03-01T07:48:33;3.60;73.20
29201;DHT22;16244;51.956;12.980;2023-03-01T07:51:00;3.30;74.10
29201;DHT22;16244;51.956;12.980;2023-03-01T07:53:29;3.50;74.30
29201;DHT22;16244;51.956;12.980;2023-03-01T07:56:02;3.70;74.10
29201;DHT22;16244;51.956;12.980;2023-03-01T07:58:30;3.90;74.40
29201;DHT22;16244;51.956;12.980;2023-03-01T08:01:01;3.90;75.90
29201;DHT22;16244;51.956;12.980;2023-03-01T08:03:28;4.30;74.10
29201;DHT22;16244;51.956;12.980;2023-03-01T08:05:58;4.60;72.60
29201;DHT22;16244;51.956;12.980;2023-03-01T08:08:26;4.30;71.80
29201;DHT22;16244;51.956;12.980;2023-03-01T08:10:57;4.10;72.40
29201;DHT22;16244;51.956;12.980;2023-03-01T08:13:26;4.30;71.80
29201;DHT22;16244;51.956;12.980;2023-03-01T08:15:53;5.00;70.10
29201;DHT22;16244;51.956;12.980;2023-03-01T08:18:21;5.00;69.90
29201;DHT22;16244;51.956;12.980;2023-03-01T08:20:48;5.30;69.80
29201;DHT22;16244;51.956;12.980;2023-03-01T08:23:16;4.90;70.00
29201;DHT22;16244;51.956;12.980;2023-03-01T08:25:43;4.60;71.20
29201;DHT22;16244;51.956;12.980;2023-03-01T08:28:12;4.70;71.30
29201;DHT22;16244;51.956;12.980;2023-03-01T08:30:39;5.20;71.90
29201;DHT22;16244;51.956;12.980;2023-03-01T08:33:07;6.10;69.80
29201;DHT22;16244;51.956;12.980;2023-03-01T08:35:34;6.20;65.90
29201;DHT22;16244;51.956;12.980;2023-03-01T08:38:02;6.20;66.40
29201;DHT22;16244;51.956;12.980;2023-03-01T08:40:29;5.90;67.00
29201;DHT22;16244;51.956;12.980;2023-03-01T08:42:58;6.70;65.40
29201;DHT22;16244;51.956;12.980;2023-03-01T08:45:27;7.40;64.20
29201;DHT22;16244;51.956;12.980;2023-03-01T08:47:54;8.30;61.60
29201;DHT22;16244;51.956;12.980;2023-03-01T08:50:22;8.80;59.60
29201;DHT22;16244;51.956;12.980;2023-03-01T08:52:50;8.40;59.50
29201;DHT22;16244;51.956;12.980;2023-03-01T08:55:18;7.70;61.10
29201;DHT22;16244;51.956;12.980;2023-03-01T08:57:45;8.30;61.90
29201;DHT22;16244;51.956;12.980;2023-03-01T09:00:13;8.70;59.50
29201;DHT22;16244;51.956;12.980;2023-03-01T09:02:43;9.30;57.00
29201;DHT22;16244;51.956;12.980;2023-03-01T09:05:10;8.40;58.10
29201;DHT22;16244;51.956;12.980;2023-03-01T09:07:37;8.70;60.00
29201;DHT22;16244;51.956;12.980;2023-03-01T09:10:06;9.20;56.90
29201;DHT22;16244;51.956;12.980;2023-03-01T09:12:34;8.90;59.00
29201;DHT22;16244;51.956;12.980;2023-03-01T09:15:02;9.10;55.40
29201;DHT22;16244;51.956;12.980;2023-03-01T09:17:30;9.90;54.50
29201;DHT22;16244;51.956;12.980;2023-03-01T09:19:58;9.90;54.30
29201;DHT22;16244;51.956;12.980;2023-03-01T09:22:26;9.80;53.50
29201;DHT22;16244;51.956;12.980;2023-03-01T09:24:53;10.40;53.00
29201;DHT22;16244;51.956;12.980;2023-03-01T09:27:22;9.90;52.90
29201;DHT22;16244;51.956;12.980;2023-03-01T09:29:51;9.60;51.90
29201;DHT22;16244;51.956;12.980;2023-03-01T09:32:18;9.00;53.10
29201;DHT22;16244;51.956;12.980;2023-03-01T09:34:46;8.70;54.70
29201;DHT22;16244;51.956;12.980;2023-03-01T09:37:33;9.30;53.80
29201;DHT22;16244;51.956;12.980;2023-03-01T09:40:01;9.40;54.50
29201;DHT22;16244;51.956;12.980;2023-03-01T09:42:31;9.30;52.70
29201;DHT22;16244;51.956;12.980;2023-03-01T09:45:03;8.80;54.10
29201;DHT22;16244;51.956;12.980;2023-03-01T09:47:33;9.20;52.40
29201;DHT22;16244;51.956;12.980;2023-03-01T09:50:05;8.40;52.80
29201;DHT22;16244;51.956;12.980;2023-03-01T09:52:39;8.80;52.30
29201;DHT22;16244;51.956;12.980;2023-03-01T09:55:11;9.80;52.90
29201;DHT22;16244;51.956;12.980;2023-03-01T09:57:45;10.40;50.60
29201;DHT22;16244;51.956;12.980;2023-03-01T10:00:20;10.90;48.80
29201;DHT22;16244;51.956;12.980;2023-03-01T10:02:54;10.70;48.60
29201;DHT22;16244;51.956;12.980;2023-03-01T10:05:41;10.80;48.20
29201;DHT22;16244;51.956;12.980;2023-03-01T10:08:26;11.10;46.90
29201;DHT22;16244;51.956;12.980;2023-03-01T10:10:55;11.50;47.60
29201;DHT22;16244;51.956;12.980;2023-03-01T10:13:26;11.10;45.40
29201;DHT22;16244;51.956;12.980;2023-03-01T10:15:57;10.70;45.00
29201;DHT22;16244;51.956;12.980;2023-03-01T10:18:26;11.40;47.10
29201;DHT22;16244;51.956;12.980;2023-03-01T10:20:58;10.90;46.30
29201;DHT22;16244;51.956;12.980;2023-03-01T10:23:30;10.50;46.50
29201;DHT22;16244;51.956;12.980;2023-03-01T10:26:14;10.60;47.40
29201;DHT22;16244;51.956;12.980;2023-03-01T10:28:50;10.70;46.50
29201;DHT22;16244;51.956;12.980;2023-03-01T10:31:22;10.60;45.90
29201;DHT22;16244;51.956;12.980;2023-03-01T10:33:54;9.70;45.70
29201;DHT22;16244;51.956;12.980;2023-03-01T10:36:23;9.70;46.60
29201;DHT22;16244;51.956;12.980;2023-03-01T10:38:54;9.60;48.40
29201;DHT22;16244;51.956;12.980;2023-03-01T10:41:24;9.00;49.50
29201;DHT22;16244;51.956;12.980;2023-03-01T10:43:53;9.00;50.80
29201;DHT22;16244;51.956;12.980;2023-03-01T10:46:26;8.40;51.80
29201;DHT22;16244;51.956;12.980;2023-03-01T10:49:12;7.40;55.50
29201;DHT22;16244;51.956;12.980;2023-03-01T10:51:41;6.50;55.70
29201;DHT22;16244;51.956;12.980;2023-03-01T10:54:18;6.20;61.10
29201;DHT22;16244;51.956;12.980;2023-03-01T10:56:48;6.00;60.50
29201;DHT22;16244;51.956;12.980;2023-03-01T10:59:25;5.70;57.10
29201;DHT22;16244;51.956;12.980;2023-03-01T11:02:12;5.40;60.40
29201;DHT22;16244;51.956;12.980;2023-03-01T11:04:56;5.30;60.30
29201;DHT22;16244;51.956;12.980;2023-03-01T11:07:24;5.20;59.30
29201;DHT22;16244;51.956;12.980;2023-03-01T11:09:53;5.30;62.60
29201;DHT22;16244;51.956;12.980;2023-03-01T11:12:21;5.30;62.00
29201;DHT22;16244;51.956;12.980;2023-03-01T11:14:50;5.20;61.10
29201;DHT22;16244;51.956;12.980;2023-03-01T11:17:23;5.20;62.10
29201;DHT22;16244;51.956;12.980;2023-03-01T11:20:23;5.20;62.60
29201;DHT22;16244;51.956;12.980;2023-03-01T11:22:54;5.00;62.80
29201;DHT22;16244;51.956;12.980;2023-03-01T11:25:26;5.00;61.50
29201;DHT22;16244;51.956;12.980;2023-03-01T11:27:54;4.90;60.10
29201;DHT22;16244;51.956;12.980;2023-03-01T11:30:26;4.90;60.50
29201;DHT22;16244;51.956;12.980;2023-03-01T11:33:05;4.90;60.40
29201;DHT22;16244;51.956;12.980;2023-03-01T11:35:37;4.90;62.30
29201;DHT22;16244;51.956;12.980;2023-03-01T11:38:20;4.90;59.30
29201;DHT22;16244;51.956;12.980;2023-03-01T11:40:54;4.90;59.90
29201;DHT22;16244;51.956;12.980;2023-03-01T11:43:32;4.80;60.00
29201;DHT22;16244;51.956;12.980;2023-03-01T11:49:17;4.90;63.70
29201;DHT22;16244;51.956;12.980;2023-03-01T11:51:51;4.90;61.10
29201;DHT22;16244;51.956;12.980;2023-03-01T11:54:32;4.80;58.80
29201;DHT22;16244;51.956;12.980;2023-03-01T11:57:12;4.80;59.20
29201;DHT22;16244;51.956;12.980;2023-03-01T11:59:55;4.80;59.10
29201;DHT22;16244;51.956;12.980;2023-03-01T12:02:57;4.90;59.70
29201;DHT22;16244;51.956;12.980;2023-03-01T12:05:53;4.90;60.70
29201;DHT22;16244;51.956;12.980;2023-03-01T12:08:31;5.00;62.00
29201;DHT22;16244;51.956;12.980;2023-03-01T12:11:07;4.90;58.50
29201;DHT22;16244;51.956;12.980;2023-03-01T12:14:05;4.90;57.80
29201;DHT22;16244;51.956;12.980;2023-03-01T12:16:54;4.90;57.70
29201;DHT22;16244;51.956;12.980;2023-03-01T12:19:33;4.90;60.10
29201;DHT22;16244;51.956;12.980;2023-03-01T12:22:29;5.00;60.80
29201;DHT22;16244;51.956;12.980;2023-03-01T12:25:16;5.10;60.10
29201;DHT22;16244;51.956;12.980;2023-03-01T12:27:55;5.00;57.80
29201;DHT22;16244;51.956;12.980;2023-03-01T12:30:37;5.10;58.80
29201;DHT22;16244;51.956;12.980;2023-03-01T12:33:19;5.20;57.60
29201;DHT22;16244;51.956;12.980;2023-03-01T12:36:14;5.30;57.30
29201;DHT22;16244;51.956;12.980;2023-03-01T12:38:49;5.20;57.00
29201;DHT22;16244;51.956;12.980;2023-03-01T12:41:35;5.30;57.60
29201;DHT22;16244;51.956;12.980;2023-03-01T12:44:20;5.30;58.00
29201;DHT22;16244;51.956;12.980;2023-03-01T12:47:05;5.30;56.70
29201;DHT22;16244;51.956;12.980;2023-03-01T12:49:37;5.20;57.50
29201;DHT22;16244;51.956;12.980;2023-03-01T12:52:11;5.20;57.20
29201;DHT22;16244;51.956;12.980;2023-03-01T12:54:41;5.30;55.90
29201;DHT22;16244;51.956;12.980;2023-03-01T12:57:14;5.40;55.50
29201;DHT22;16244;51.956;12.980;2023-03-01T12:59:50;5.50;58.90
29201;DHT22;16244;51.956;12.980;2023-03-01T13:02:24;5.40;56.40
29201;DHT22;16244;51.956;12.980;2023-03-01T13:05:06;5.40;59.70
29201;DHT22;16244;51.956;12.980;2023-03-01T13:07:45;5.40;56.40
29201;DHT22;16244;51.956;12.980;2023-03-01T13:10:21;5.40;59.30
29201;DHT22;16244;51.956;12.980;2023-03-01T13:12:53;5.40;60.30
29201;DHT22;16244;51.956;12.980;2023-03-01T13:15:33;5.40;61.50
29201;DHT22;16244;51.956;12.980;2023-03-01T13:18:04;5.30;62.00
29201;DHT22;16244;51.956;12.980;2023-03-01T13:20:34;5.40;57.30
29201;DHT22;16244;51.956;12.980;2023-03-01T13:23:23;5.40;55.60
29201;DHT22;16244;51.956;12.980;2023-03-01T13:26:06;5.50;58.90
29201;DHT22;16244;51.956;12.980;2023-03-01T13:28:52;5.50;56.90
29201;DHT22;16244;51.956;12.980;2023-03-01T13:34:43;5.60;57.60
29201;DHT22;16244;51.956;12.980;2023-03-01T13:37:19;5.60;53.60
29201;DHT22;16244;51.956;12.980;2023-03-01T13:39:47;5.60;54.30
29201;DHT22;16244;51.956;12.980;2023-03-01T13:42:36;5.50;56.90
29201;DHT22;16244;51.956;12.980;2023-03-01T13:45:14;5.50;57.40
29201;DHT22;16244;51.956;12.980;2023-03-01T13:47:45;5.50;55.10
29201;DHT22;16244;51.956;12.980;2023-03-01T13:50:21;5.60;54.20
29201;DHT22;16244;51.956;12.980;2023-03-01T13:52:54;5.60;55.90
29201;DHT22;16244;51.956;12.980;2023-03-01T13:55:27;5.60;55.60
29201;DHT22;16244;51.956;12.980;2023-03-01T13:57:57;5.50;56.60
29201;DHT22;16244;51.956;12.980;2023-03-01T14:00:36;5.60;55.60
29201;DHT22;16244;51.956;12.980;2023-03-01T14:03:15;5.60;53.50
29201;DHT22;16244;51.956;12.980;2023-03-01T14:05:58;5.60;52.90
29201;DHT22;16244;51.956;12.980;2023-03-01T14:08:30;5.60;52.50
29201;DHT22;16244;51.956;12.980;2023-03-01T14:11:26;5.50;52.90
29201;DHT22;16244;51.956;12.980;2023-03-01T14:14:21;5.70;51.70
29201;DHT22;16244;51.956;12.980;2023-03-01T14:17:02;5.60;52.50
29201;DHT22;16244;51.956;12.980;2023-03-01T14:19:33;5.60;53.10
29201;DHT22;16244;51.956;12.980;2023-03-01T14:22:11;5.60;55.30
29201;DHT22;16244;51.956;12.980;2023-03-01T14:24:51;5.60;58.70
29201;DHT22;16244;51.956;12.980;2023-03-01T14:27:19;5.40;60.00
29201;DHT22;16244;51.956;12.980;2023-03-01T14:29:54;5.50;58.30
29201;DHT22;16244;51.956;12.980;2023-03-01T14:32:25;5.60;54.10
29201;DHT22;16244;51.956;12.980;2023-03-01T14:34:53;5.60;53.80
29201;DHT22;16244;51.956;12.980;2023-03-01T14:37:25;5.60;56.70
29201;DHT22;16244;51.956;12.980;2023-03-01T14:39:53;5.60;56.20
29201;DHT22;16244;51.956;12.980;2023-03-01T14:42:22;5.60;54.70
29201;DHT22;16244;51.956;12.980;2023-03-01T14:44:53;5.60;54.90
29201;DHT22;16244;51.956;12.980;2023-03-01T14:47:26;5.60;56.20
29201;DHT22;16244;51.956;12.980;2023-03-01T14:49:58;5.60;56.80
29201;DHT22;16244;51.956;12.980;2023-03-01T14:52:33;5.50;54.70
29201;DHT22;16244;51.956;12.980;2023-03-01T14:55:05;5.50;55.70
29201;DHT22;16244;51.956;12.980;2023-03-01T14:57:33;5.50;57.60
29201;DHT22;16244;51.956;12.980;2023-03-01T15:00:03;5.40;55.10
29201;DHT22;16244;51.956;12.980;2023-03-01T15:02:32;5.50;55.00
29201;DHT22;16244;51.956;12.980;2023-03-01T15:05:02;5.50;56.80
29201;DHT22;16244;51.956;12.980;2023-03-01T15:07:35;5.50;54.40
29201;DHT22;16244;51.956;12.980;2023-03-01T15:10:05;5.40;54.50
29201;DHT22;16244;51.956;12.980;2023-03-01T15:12:39;5.40;54.70
29201;DHT22;16244;51.956;12.980;2023-03-01T15:15:21;5.40;55.20
29201;DHT22;16244;51.956;12.980;2023-03-01T15:17:52;5.20;59.80
29201;DHT22;16244;51.956;12.980;2023-03-01T15:20:23;5.10;61.20
29201;DHT22;16244;51.956;12.980;2023-03-01T15:22:53;5.10;59.40
29201;DHT22;16244;51.956;12.980;2023-03-01T15:25:23;5.20;57.20
29201;DHT22;16244;51.956;12.980;2023-03-01T15:27:53;5.20;58.90
29201;DHT22;16244;51.956;12.980;2023-03-01T15:30:24;5.00;65.10
29201;DHT22;16244;51.956;12.980;2023-03-01T15:33:20;5.00;57.40
29201;DHT22;16244;51.956;12.980;2023-03-01T15:35:55;5.10;56.30
29201;DHT22;16244;51.956;12.980;2023-03-01T15:38:32;5.10;59.80
29201;DHT22;16244;51.956;12.980;2023-03-01T15:41:01;5.10;58.50
29201;DHT22;16244;51.956;12.980;2023-03-01T15:43:47;5.10;57.20
29201;DHT22;16244;51.956;12.980;2023-03-01T15:46:18;5.00;56.80
29201;DHT22;16244;51.956;12.980;2023-03-01T15:48:47;5.00;57.00
29201;DHT22;16244;51.956;12.980;2023-03-01T15:51:16;4.90;58.40
29201;DHT22;16244;51.956;12.980;2023-03-01T15:53:49;4.90;58.60
29201;DHT22;16244;51.956;12.980;2023-03-01T15:56:17;4.80;57.90